Gravesville, Arkansas
Current Conditions -  °F | °C
As of 7:58 PM on Friday 31 Oct 2014 (Local Time) from KLRF Reporting Station
Clear Clear  
Wind Chill: 45°   Ceiling: Unl
Heat Index: 49°   Visibility: 10mi
Dew Point: 22°   Wind: 8mph
Humidity: 34%   Direction: 30°NNE
Pressure: 30.33"   Gusts: NA
Location:  35.3032°N, 92.4407°W
Report Text: KLRF 010058Z AUTO 03007KT 10SM CLR 09/M06 A3033 RMK AO2 SLP274 T00931058
Loading
Personal Weather Stations






























Interactive Weather Map
Tropical Storm Tracking
New forecast layout! Learn more

10-Day Weather Forecast

Advertisements
Track Severe Weather on mobile